sensor_id;sensor_type;location;lat;lon;timestamp;P1;durP1;ratioP1;P2;durP2;ratioP2
76807;SDS011;65758;45.458;11.062;2023-05-14T00:00:03;2.10;;;1.00;;
76807;SDS011;65758;45.458;11.062;2023-05-14T00:02:31;0.80;;;0.80;;
76807;SDS011;65758;45.458;11.062;2023-05-14T00:04:58;1.10;;;0.80;;
76807;SDS011;65758;45.458;11.062;2023-05-14T00:07:25;6.20;;;1.10;;
76807;SDS011;65758;45.458;11.062;2023-05-14T00:09:56;1.40;;;0.90;;
76807;SDS011;65758;45.458;11.062;2023-05-14T00:12:24;2.10;;;0.80;;
76807;SDS011;65758;45.458;11.062;2023-05-14T00:14:52;1.30;;;1.10;;
76807;SDS011;65758;45.458;11.062;2023-05-14T00:17:19;0.80;;;0.80;;
76807;SDS011;65758;45.458;11.062;2023-05-14T00:19:46;0.90;;;0.90;;
76807;SDS011;65758;45.458;11.062;2023-05-14T00:22:13;2.10;;;1.10;;
76807;SDS011;65758;45.458;11.062;2023-05-14T00:24:39;1.00;;;0.90;;
76807;SDS011;65758;45.458;11.062;2023-05-14T00:27:06;1.10;;;0.90;;
76807;SDS011;65758;45.458;11.062;2023-05-14T00:29:33;1.30;;;1.10;;
76807;SDS011;65758;45.458;11.062;2023-05-14T00:31:59;0.90;;;0.90;;
76807;SDS011;65758;45.458;11.062;2023-05-14T00:34:26;1.20;;;1.10;;
76807;SDS011;65758;45.458;11.062;2023-05-14T00:36:53;3.60;;;1.40;;
76807;SDS011;65758;45.458;11.062;2023-05-14T00:39:20;1.20;;;1.10;;
76807;SDS011;65758;45.458;11.062;2023-05-14T00:41:46;1.70;;;1.00;;
76807;SDS011;65758;45.458;11.062;2023-05-14T00:44:13;0.80;;;0.80;;
76807;SDS011;65758;45.458;11.062;2023-05-14T00:46:40;3.10;;;1.30;;
76807;SDS011;65758;45.458;11.062;2023-05-14T00:49:09;1.00;;;0.80;;
76807;SDS011;65758;45.458;11.062;2023-05-14T00:51:36;1.40;;;0.80;;
76807;SDS011;65758;45.458;11.062;2023-05-14T00:54:03;3.20;;;0.90;;
76807;SDS011;65758;45.458;11.062;2023-05-14T00:56:31;0.90;;;0.80;;
76807;SDS011;65758;45.458;11.062;2023-05-14T00:59:00;2.40;;;1.10;;
76807;SDS011;65758;45.458;11.062;2023-05-14T01:01:27;0.80;;;0.80;;
76807;SDS011;65758;45.458;11.062;2023-05-14T01:03:54;1.80;;;1.00;;
76807;SDS011;65758;45.458;11.062;2023-05-14T01:16:51;1.40;;;0.80;;
76807;SDS011;65758;45.458;11.062;2023-05-14T01:22:03;2.00;;;1.10;;
76807;SDS011;65758;45.458;11.062;2023-05-14T01:24:30;1.10;;;0.80;;
76807;SDS011;65758;45.458;11.062;2023-05-14T01:26:59;1.20;;;0.70;;
76807;SDS011;65758;45.458;11.062;2023-05-14T01:29:32;0.90;;;0.70;;
76807;SDS011;65758;45.458;11.062;2023-05-14T01:32:02;0.70;;;0.70;;
76807;SDS011;65758;45.458;11.062;2023-05-14T01:34:34;1.10;;;1.00;;
76807;SDS011;65758;45.458;11.062;2023-05-14T01:37:02;0.90;;;0.80;;
76807;SDS011;65758;45.458;11.062;2023-05-14T01:39:30;2.30;;;1.00;;
76807;SDS011;65758;45.458;11.062;2023-05-14T01:41:58;1.20;;;0.90;;
76807;SDS011;65758;45.458;11.062;2023-05-14T01:44:26;0.80;;;0.80;;
76807;SDS011;65758;45.458;11.062;2023-05-14T01:46:53;1.30;;;1.00;;
76807;SDS011;65758;45.458;11.062;2023-05-14T01:49:20;1.90;;;0.70;;
76807;SDS011;65758;45.458;11.062;2023-05-14T01:51:46;3.00;;;1.00;;
76807;SDS011;65758;45.458;11.062;2023-05-14T01:54:13;2.70;;;1.00;;
76807;SDS011;65758;45.458;11.062;2023-05-14T01:56:40;0.70;;;0.70;;
76807;SDS011;65758;45.458;11.062;2023-05-14T01:59:07;2.10;;;1.00;;
76807;SDS011;65758;45.458;11.062;2023-05-14T02:01:34;0.90;;;0.70;;
76807;SDS011;65758;45.458;11.062;2023-05-14T02:04:01;0.90;;;0.80;;
76807;SDS011;65758;45.458;11.062;2023-05-14T02:06:28;2.10;;;0.90;;
76807;SDS011;65758;45.458;11.062;2023-05-14T02:08:55;2.70;;;0.90;;
76807;SDS011;65758;45.458;11.062;2023-05-14T02:11:22;1.10;;;0.90;;
76807;SDS011;65758;45.458;11.062;2023-05-14T02:13:48;1.70;;;0.90;;
76807;SDS011;65758;45.458;11.062;2023-05-14T02:16:15;1.90;;;0.90;;
76807;SDS011;65758;45.458;11.062;2023-05-14T02:18:42;1.20;;;0.60;;
76807;SDS011;65758;45.458;11.062;2023-05-14T02:21:09;0.90;;;0.80;;
76807;SDS011;65758;45.458;11.062;2023-05-14T02:23:36;0.80;;;0.80;;
76807;SDS011;65758;45.458;11.062;2023-05-14T02:26:08;1.20;;;0.80;;
76807;SDS011;65758;45.458;11.062;2023-05-14T02:28:36;1.30;;;0.80;;
76807;SDS011;65758;45.458;11.062;2023-05-14T02:31:03;3.40;;;0.90;;
76807;SDS011;65758;45.458;11.062;2023-05-14T02:33:30;0.80;;;0.70;;
76807;SDS011;65758;45.458;11.062;2023-05-14T02:35:57;2.70;;;0.70;;
76807;SDS011;65758;45.458;11.062;2023-05-14T02:38:24;1.10;;;0.90;;
76807;SDS011;65758;45.458;11.062;2023-05-14T02:40:51;2.00;;;0.70;;
76807;SDS011;65758;45.458;11.062;2023-05-14T02:43:18;2.30;;;0.70;;
76807;SDS011;65758;45.458;11.062;2023-05-14T02:45:45;0.70;;;0.70;;
76807;SDS011;65758;45.458;11.062;2023-05-14T02:48:12;0.90;;;0.80;;
76807;SDS011;65758;45.458;11.062;2023-05-14T02:50:39;2.20;;;0.90;;
76807;SDS011;65758;45.458;11.062;2023-05-14T02:53:06;1.10;;;0.60;;
76807;SDS011;65758;45.458;11.062;2023-05-14T02:55:34;0.90;;;0.80;;
76807;SDS011;65758;45.458;11.062;2023-05-14T02:58:01;1.70;;;0.80;;
76807;SDS011;65758;45.458;11.062;2023-05-14T03:00:27;0.60;;;0.60;;
76807;SDS011;65758;45.458;11.062;2023-05-14T03:02:55;1.80;;;0.80;;
76807;SDS011;65758;45.458;11.062;2023-05-14T03:05:22;1.70;;;0.80;;
76807;SDS011;65758;45.458;11.062;2023-05-14T03:07:52;2.70;;;1.20;;
76807;SDS011;65758;45.458;11.062;2023-05-14T03:10:19;1.50;;;0.70;;
76807;SDS011;65758;45.458;11.062;2023-05-14T03:12:46;0.60;;;0.60;;
76807;SDS011;65758;45.458;11.062;2023-05-14T03:15:13;1.50;;;0.90;;
76807;SDS011;65758;45.458;11.062;2023-05-14T03:17:40;2.20;;;0.90;;
76807;SDS011;65758;45.458;11.062;2023-05-14T03:20:07;0.70;;;0.70;;
76807;SDS011;65758;45.458;11.062;2023-05-14T03:22:34;1.90;;;0.80;;
76807;SDS011;65758;45.458;11.062;2023-05-14T03:25:01;1.20;;;0.80;;
76807;SDS011;65758;45.458;11.062;2023-05-14T03:27:27;2.00;;;0.70;;
76807;SDS011;65758;45.458;11.062;2023-05-14T03:29:55;0.60;;;0.60;;
76807;SDS011;65758;45.458;11.062;2023-05-14T03:32:22;1.20;;;0.70;;
76807;SDS011;65758;45.458;11.062;2023-05-14T03:34:49;0.70;;;0.70;;
76807;SDS011;65758;45.458;11.062;2023-05-14T03:37:16;0.50;;;0.50;;
76807;SDS011;65758;45.458;11.062;2023-05-14T03:39:43;1.40;;;0.60;;
76807;SDS011;65758;45.458;11.062;2023-05-14T03:42:09;1.20;;;0.70;;
76807;SDS011;65758;45.458;11.062;2023-05-14T03:44:36;2.30;;;0.80;;
76807;SDS011;65758;45.458;11.062;2023-05-14T03:47:03;0.90;;;0.80;;
76807;SDS011;65758;45.458;11.062;2023-05-14T03:49:30;1.60;;;1.10;;
76807;SDS011;65758;45.458;11.062;2023-05-14T03:51:57;2.00;;;0.90;;
76807;SDS011;65758;45.458;11.062;2023-05-14T03:54:25;1.00;;;1.00;;
76807;SDS011;65758;45.458;11.062;2023-05-14T03:56:52;1.30;;;0.50;;
76807;SDS011;65758;45.458;11.062;2023-05-14T03:59:18;1.00;;;0.80;;
76807;SDS011;65758;45.458;11.062;2023-05-14T04:01:45;0.90;;;0.80;;
76807;SDS011;65758;45.458;11.062;2023-05-14T04:04:12;3.60;;;0.60;;
76807;SDS011;65758;45.458;11.062;2023-05-14T04:06:39;1.30;;;1.00;;
76807;SDS011;65758;45.458;11.062;2023-05-14T04:09:05;1.40;;;0.80;;
76807;SDS011;65758;45.458;11.062;2023-05-14T04:11:33;3.20;;;0.90;;
76807;SDS011;65758;45.458;11.062;2023-05-14T04:14:00;2.30;;;0.80;;
76807;SDS011;65758;45.458;11.062;2023-05-14T04:16:27;0.70;;;0.70;;
76807;SDS011;65758;45.458;11.062;2023-05-14T04:18:54;2.80;;;1.00;;
76807;SDS011;65758;45.458;11.062;2023-05-14T04:21:21;0.80;;;0.80;;
76807;SDS011;65758;45.458;11.062;2023-05-14T04:23:47;1.30;;;0.80;;
76807;SDS011;65758;45.458;11.062;2023-05-14T04:26:15;0.40;;;0.40;;
76807;SDS011;65758;45.458;11.062;2023-05-14T04:28:41;1.70;;;1.40;;
76807;SDS011;65758;45.458;11.062;2023-05-14T04:31:08;4.40;;;1.10;;
76807;SDS011;65758;45.458;11.062;2023-05-14T04:33:35;0.90;;;0.80;;
76807;SDS011;65758;45.458;11.062;2023-05-14T04:36:02;1.50;;;0.70;;
76807;SDS011;65758;45.458;11.062;2023-05-14T04:38:30;2.50;;;0.80;;
76807;SDS011;65758;45.458;11.062;2023-05-14T04:40:57;2.40;;;0.70;;
76807;SDS011;65758;45.458;11.062;2023-05-14T04:43:24;2.10;;;0.70;;
76807;SDS011;65758;45.458;11.062;2023-05-14T04:45:50;1.90;;;0.90;;
76807;SDS011;65758;45.458;11.062;2023-05-14T04:48:18;1.80;;;0.80;;
76807;SDS011;65758;45.458;11.062;2023-05-14T04:50:44;0.70;;;0.70;;
76807;SDS011;65758;45.458;11.062;2023-05-14T04:53:11;5.30;;;1.10;;
76807;SDS011;65758;45.458;11.062;2023-05-14T04:55:38;0.80;;;0.80;;
76807;SDS011;65758;45.458;11.062;2023-05-14T04:58:05;2.00;;;1.00;;
76807;SDS011;65758;45.458;11.062;2023-05-14T05:00:31;1.00;;;1.00;;
76807;SDS011;65758;45.458;11.062;2023-05-14T05:02:58;3.60;;;1.20;;
76807;SDS011;65758;45.458;11.062;2023-05-14T05:05:26;1.40;;;1.20;;
76807;SDS011;65758;45.458;11.062;2023-05-14T05:07:52;3.30;;;1.30;;
76807;SDS011;65758;45.458;11.062;2023-05-14T05:10:19;3.50;;;1.30;;
76807;SDS011;65758;45.458;11.062;2023-05-14T05:12:46;1.50;;;1.10;;
76807;SDS011;65758;45.458;11.062;2023-05-14T05:15:13;1.90;;;1.30;;
76807;SDS011;65758;45.458;11.062;2023-05-14T05:17:40;1.70;;;1.20;;
76807;SDS011;65758;45.458;11.062;2023-05-14T05:20:07;2.90;;;1.10;;
76807;SDS011;65758;45.458;11.062;2023-05-14T05:22:35;1.90;;;1.50;;
76807;SDS011;65758;45.458;11.062;2023-05-14T05:25:02;2.40;;;1.50;;
76807;SDS011;65758;45.458;11.062;2023-05-14T05:27:31;1.90;;;1.20;;
76807;SDS011;65758;45.458;11.062;2023-05-14T05:30:01;1.30;;;1.20;;
76807;SDS011;65758;45.458;11.062;2023-05-14T05:32:29;2.30;;;1.60;;
76807;SDS011;65758;45.458;11.062;2023-05-14T05:34:56;2.80;;;1.50;;
76807;SDS011;65758;45.458;11.062;2023-05-14T05:37:24;2.60;;;1.70;;
76807;SDS011;65758;45.458;11.062;2023-05-14T05:39:51;1.30;;;1.20;;
76807;SDS011;65758;45.458;11.062;2023-05-14T05:42:17;3.10;;;1.20;;
76807;SDS011;65758;45.458;11.062;2023-05-14T05:44:44;1.30;;;1.10;;
76807;SDS011;65758;45.458;11.062;2023-05-14T05:47:11;1.10;;;1.10;;
76807;SDS011;65758;45.458;11.062;2023-05-14T05:49:38;2.00;;;1.50;;
76807;SDS011;65758;45.458;11.062;2023-05-14T05:52:04;2.70;;;1.10;;
76807;SDS011;65758;45.458;11.062;2023-05-14T05:54:31;2.30;;;1.00;;
76807;SDS011;65758;45.458;11.062;2023-05-14T05:56:58;1.20;;;1.10;;
76807;SDS011;65758;45.458;11.062;2023-05-14T05:59:25;1.20;;;1.10;;
76807;SDS011;65758;45.458;11.062;2023-05-14T06:01:52;3.30;;;1.20;;
76807;SDS011;65758;45.458;11.062;2023-05-14T06:04:19;3.50;;;1.10;;
76807;SDS011;65758;45.458;11.062;2023-05-14T06:06:45;2.20;;;1.20;;
76807;SDS011;65758;45.458;11.062;2023-05-14T06:09:12;2.70;;;1.00;;
76807;SDS011;65758;45.458;11.062;2023-05-14T06:11:39;2.50;;;1.10;;
76807;SDS011;65758;45.458;11.062;2023-05-14T06:14:05;1.10;;;1.10;;
76807;SDS011;65758;45.458;11.062;2023-05-14T06:16:32;1.50;;;1.10;;
76807;SDS011;65758;45.458;11.062;2023-05-14T06:18:59;1.70;;;1.10;;
76807;SDS011;65758;45.458;11.062;2023-05-14T06:21:27;1.60;;;1.50;;
76807;SDS011;65758;45.458;11.062;2023-05-14T06:23:54;1.20;;;1.20;;
76807;SDS011;65758;45.458;11.062;2023-05-14T06:26:21;4.00;;;1.30;;
76807;SDS011;65758;45.458;11.062;2023-05-14T06:28:48;1.60;;;1.20;;
76807;SDS011;65758;45.458;11.062;2023-05-14T06:31:16;2.80;;;1.20;;
76807;SDS011;65758;45.458;11.062;2023-05-14T06:33:43;2.10;;;1.20;;
76807;SDS011;65758;45.458;11.062;2023-05-14T06:36:10;2.00;;;1.40;;
76807;SDS011;65758;45.458;11.062;2023-05-14T06:38:37;1.60;;;1.10;;
76807;SDS011;65758;45.458;11.062;2023-05-14T06:41:04;1.40;;;1.30;;
76807;SDS011;65758;45.458;11.062;2023-05-14T06:43:31;2.50;;;1.50;;
76807;SDS011;65758;45.458;11.062;2023-05-14T06:45:57;4.00;;;1.20;;
76807;SDS011;65758;45.458;11.062;2023-05-14T06:48:34;5.80;;;1.60;;
76807;SDS011;65758;45.458;11.062;2023-05-14T06:51:33;1.40;;;1.30;;
76807;SDS011;65758;45.458;11.062;2023-05-14T06:54:00;2.10;;;1.40;;
76807;SDS011;65758;45.458;11.062;2023-05-14T06:56:27;2.90;;;1.50;;
76807;SDS011;65758;45.458;11.062;2023-05-14T06:58:54;2.10;;;1.30;;
76807;SDS011;65758;45.458;11.062;2023-05-14T07:01:21;5.00;;;1.70;;
76807;SDS011;65758;45.458;11.062;2023-05-14T07:03:48;2.30;;;1.60;;
76807;SDS011;65758;45.458;11.062;2023-05-14T07:06:15;2.80;;;1.60;;
76807;SDS011;65758;45.458;11.062;2023-05-14T07:08:42;3.60;;;1.50;;
76807;SDS011;65758;45.458;11.062;2023-05-14T07:11:11;3.20;;;1.50;;
76807;SDS011;65758;45.458;11.062;2023-05-14T07:13:41;2.90;;;1.80;;
76807;SDS011;65758;45.458;11.062;2023-05-14T07:16:08;1.80;;;1.60;;
76807;SDS011;65758;45.458;11.062;2023-05-14T07:18:37;1.90;;;1.70;;
76807;SDS011;65758;45.458;11.062;2023-05-14T07:21:04;1.70;;;1.60;;
76807;SDS011;65758;45.458;11.062;2023-05-14T07:23:32;3.40;;;2.10;;
76807;SDS011;65758;45.458;11.062;2023-05-14T07:26:01;1.50;;;1.40;;
76807;SDS011;65758;45.458;11.062;2023-05-14T07:28:29;2.40;;;1.50;;
76807;SDS011;65758;45.458;11.062;2023-05-14T07:30:56;1.90;;;1.70;;
76807;SDS011;65758;45.458;11.062;2023-05-14T07:33:23;2.50;;;1.70;;
76807;SDS011;65758;45.458;11.062;2023-05-14T07:35:51;5.00;;;1.90;;
76807;SDS011;65758;45.458;11.062;2023-05-14T07:38:18;2.00;;;1.90;;
76807;SDS011;65758;45.458;11.062;2023-05-14T07:40:46;2.30;;;2.10;;
76807;SDS011;65758;45.458;11.062;2023-05-14T07:43:13;2.40;;;2.20;;
76807;SDS011;65758;45.458;11.062;2023-05-14T07:45:40;2.90;;;2.20;;
76807;SDS011;65758;45.458;11.062;2023-05-14T07:48:06;2.40;;;2.00;;
76807;SDS011;65758;45.458;11.062;2023-05-14T07:50:35;4.30;;;2.30;;
76807;SDS011;65758;45.458;11.062;2023-05-14T07:53:03;2.80;;;2.20;;
76807;SDS011;65758;45.458;11.062;2023-05-14T07:55:29;2.70;;;2.40;;
76807;SDS011;65758;45.458;11.062;2023-05-14T07:57:56;3.80;;;2.40;;
76807;SDS011;65758;45.458;11.062;2023-05-14T08:00:23;2.10;;;1.90;;
76807;SDS011;65758;45.458;11.062;2023-05-14T08:02:50;5.70;;;2.30;;
76807;SDS011;65758;45.458;11.062;2023-05-14T08:05:18;2.70;;;1.80;;
76807;SDS011;65758;45.458;11.062;2023-05-14T08:07:44;2.30;;;2.10;;
76807;SDS011;65758;45.458;11.062;2023-05-14T08:10:11;3.00;;;2.50;;
76807;SDS011;65758;45.458;11.062;2023-05-14T08:12:38;3.20;;;2.50;;
76807;SDS011;65758;45.458;11.062;2023-05-14T08:15:05;3.30;;;3.00;;
76807;SDS011;65758;45.458;11.062;2023-05-14T08:17:33;6.00;;;3.50;;
76807;SDS011;65758;45.458;11.062;2023-05-14T08:20:00;5.10;;;3.50;;
76807;SDS011;65758;45.458;11.062;2023-05-14T08:22:28;3.20;;;2.60;;
76807;SDS011;65758;45.458;11.062;2023-05-14T08:24:54;2.40;;;2.00;;
76807;SDS011;65758;45.458;11.062;2023-05-14T08:27:21;4.20;;;2.80;;
76807;SDS011;65758;45.458;11.062;2023-05-14T08:29:48;6.80;;;3.10;;
76807;SDS011;65758;45.458;11.062;2023-05-14T08:32:14;3.80;;;2.80;;
76807;SDS011;65758;45.458;11.062;2023-05-14T08:34:49;2.90;;;2.60;;
76807;SDS011;65758;45.458;11.062;2023-05-14T08:37:16;3.90;;;3.20;;
76807;SDS011;65758;45.458;11.062;2023-05-14T08:39:43;3.10;;;2.80;;
76807;SDS011;65758;45.458;11.062;2023-05-14T08:42:11;4.20;;;3.20;;
76807;SDS011;65758;45.458;11.062;2023-05-14T08:44:45;3.60;;;3.10;;
76807;SDS011;65758;45.458;11.062;2023-05-14T08:47:16;5.90;;;2.90;;
76807;SDS011;65758;45.458;11.062;2023-05-14T08:49:48;6.60;;;5.20;;
76807;SDS011;65758;45.458;11.062;2023-05-14T08:52:20;9.90;;;5.60;;
76807;SDS011;65758;45.458;11.062;2023-05-14T08:54:49;9.30;;;7.20;;
76807;SDS011;65758;45.458;11.062;2023-05-14T08:57:20;8.50;;;7.10;;
76807;SDS011;65758;45.458;11.062;2023-05-14T08:59:50;7.20;;;5.90;;
76807;SDS011;65758;45.458;11.062;2023-05-14T09:02:17;9.00;;;5.70;;
76807;SDS011;65758;45.458;11.062;2023-05-14T09:04:53;6.60;;;5.10;;
76807;SDS011;65758;45.458;11.062;2023-05-14T09:07:22;6.20;;;3.90;;
76807;SDS011;65758;45.458;11.062;2023-05-14T09:09:52;6.50;;;4.20;;
76807;SDS011;65758;45.458;11.062;2023-05-14T09:12:20;3.30;;;3.00;;
76807;SDS011;65758;45.458;11.062;2023-05-14T09:14:47;4.10;;;3.10;;
76807;SDS011;65758;45.458;11.062;2023-05-14T09:17:15;3.50;;;2.20;;
76807;SDS011;65758;45.458;11.062;2023-05-14T09:19:43;2.10;;;1.90;;
76807;SDS011;65758;45.458;11.062;2023-05-14T09:22:16;4.00;;;2.30;;
76807;SDS011;65758;45.458;11.062;2023-05-14T09:24:43;3.10;;;1.80;;
76807;SDS011;65758;45.458;11.062;2023-05-14T09:27:16;3.20;;;1.90;;
76807;SDS011;65758;45.458;11.062;2023-05-14T09:29:48;2.30;;;2.00;;
76807;SDS011;65758;45.458;11.062;2023-05-14T09:32:14;3.80;;;2.00;;
76807;SDS011;65758;45.458;11.062;2023-05-14T09:34:41;2.40;;;2.00;;
76807;SDS011;65758;45.458;11.062;2023-05-14T09:37:08;1.90;;;1.70;;
76807;SDS011;65758;45.458;11.062;2023-05-14T09:39:36;2.40;;;2.00;;
76807;SDS011;65758;45.458;11.062;2023-05-14T09:42:03;2.30;;;1.80;;
76807;SDS011;65758;45.458;11.062;2023-05-14T09:44:31;2.20;;;1.60;;
76807;SDS011;65758;45.458;11.062;2023-05-14T09:46:58;2.40;;;1.80;;
76807;SDS011;65758;45.458;11.062;2023-05-14T09:49:25;2.20;;;2.00;;
76807;SDS011;65758;45.458;11.062;2023-05-14T09:51:51;2.10;;;1.90;;
76807;SDS011;65758;45.458;11.062;2023-05-14T09:54:18;3.50;;;2.00;;
76807;SDS011;65758;45.458;11.062;2023-05-14T09:56:45;2.20;;;2.00;;
76807;SDS011;65758;45.458;11.062;2023-05-14T09:59:12;2.00;;;1.80;;
76807;SDS011;65758;45.458;11.062;2023-05-14T10:01:39;2.80;;;1.90;;
76807;SDS011;65758;45.458;11.062;2023-05-14T10:04:09;4.20;;;2.00;;
76807;SDS011;65758;45.458;11.062;2023-05-14T10:06:38;4.60;;;2.20;;
76807;SDS011;65758;45.458;11.062;2023-05-14T10:09:11;2.40;;;1.80;;
76807;SDS011;65758;45.458;11.062;2023-05-14T10:11:41;3.20;;;2.40;;
76807;SDS011;65758;45.458;11.062;2023-05-14T10:14:15;2.00;;;1.80;;
76807;SDS011;65758;45.458;11.062;2023-05-14T10:16:46;3.80;;;2.10;;
76807;SDS011;65758;45.458;11.062;2023-05-14T10:19:16;3.20;;;2.20;;
76807;SDS011;65758;45.458;11.062;2023-05-14T10:21:47;2.60;;;2.10;;
76807;SDS011;65758;45.458;11.062;2023-05-14T10:24:19;4.60;;;2.00;;
76807;SDS011;65758;45.458;11.062;2023-05-14T10:26:46;2.10;;;1.90;;
76807;SDS011;65758;45.458;11.062;2023-05-14T10:29:14;3.30;;;1.90;;
76807;SDS011;65758;45.458;11.062;2023-05-14T10:31:48;2.00;;;1.90;;
76807;SDS011;65758;45.458;11.062;2023-05-14T10:37:16;3.60;;;2.10;;
76807;SDS011;65758;45.458;11.062;2023-05-14T10:39:49;2.30;;;2.10;;
76807;SDS011;65758;45.458;11.062;2023-05-14T10:42:20;2.30;;;1.90;;
76807;SDS011;65758;45.458;11.062;2023-05-14T10:45:04;2.10;;;1.60;;
76807;SDS011;65758;45.458;11.062;2023-05-14T10:47:37;3.20;;;1.80;;
76807;SDS011;65758;45.458;11.062;2023-05-14T10:50:06;3.10;;;1.70;;
76807;SDS011;65758;45.458;11.062;2023-05-14T10:52:35;3.40;;;2.10;;
76807;SDS011;65758;45.458;11.062;2023-05-14T10:55:03;1.70;;;1.60;;
76807;SDS011;65758;45.458;11.062;2023-05-14T10:57:36;2.60;;;1.60;;
76807;SDS011;65758;45.458;11.062;2023-05-14T11:00:04;3.10;;;1.90;;
76807;SDS011;65758;45.458;11.062;2023-05-14T11:02:35;2.80;;;2.00;;
76807;SDS011;65758;45.458;11.062;2023-05-14T11:05:14;1.80;;;1.40;;
76807;SDS011;65758;45.458;11.062;2023-05-14T11:07:44;2.70;;;1.90;;
76807;SDS011;65758;45.458;11.062;2023-05-14T11:10:18;1.80;;;1.60;;
76807;SDS011;65758;45.458;11.062;2023-05-14T11:12:48;2.40;;;1.50;;
76807;SDS011;65758;45.458;11.062;2023-05-14T11:15:22;3.10;;;1.60;;
76807;SDS011;65758;45.458;11.062;2023-05-14T11:17:52;2.80;;;2.00;;
76807;SDS011;65758;45.458;11.062;2023-05-14T11:20:20;2.50;;;2.20;;
76807;SDS011;65758;45.458;11.062;2023-05-14T11:22:47;2.20;;;2.00;;
76807;SDS011;65758;45.458;11.062;2023-05-14T11:25:17;3.50;;;2.20;;
76807;SDS011;65758;45.458;11.062;2023-05-14T11:27:44;2.30;;;2.00;;
76807;SDS011;65758;45.458;11.062;2023-05-14T11:30:13;2.10;;;1.90;;
76807;SDS011;65758;45.458;11.062;2023-05-14T11:32:45;2.60;;;2.30;;
76807;SDS011;65758;45.458;11.062;2023-05-14T11:35:13;2.70;;;1.70;;
76807;SDS011;65758;45.458;11.062;2023-05-14T11:37:41;3.10;;;1.90;;
76807;SDS011;65758;45.458;11.062;2023-05-14T11:40:13;2.40;;;2.20;;
76807;SDS011;65758;45.458;11.062;2023-05-14T11:42:44;2.40;;;2.10;;
76807;SDS011;65758;45.458;11.062;2023-05-14T11:45:11;4.10;;;2.10;;
76807;SDS011;65758;45.458;11.062;2023-05-14T11:47:49;2.40;;;2.00;;
76807;SDS011;65758;45.458;11.062;2023-05-14T11:50:19;1.70;;;1.60;;
76807;SDS011;65758;45.458;11.062;2023-05-14T11:52:47;2.10;;;1.90;;
76807;SDS011;65758;45.458;11.062;2023-05-14T11:55:16;2.00;;;1.60;;
76807;SDS011;65758;45.458;11.062;2023-05-14T11:57:43;2.00;;;1.80;;
76807;SDS011;65758;45.458;11.062;2023-05-14T12:00:10;1.70;;;1.60;;
76807;SDS011;65758;45.458;11.062;2023-05-14T12:02:47;1.90;;;1.70;;
76807;SDS011;65758;45.458;11.062;2023-05-14T12:05:15;2.30;;;1.80;;
76807;SDS011;65758;45.458;11.062;2023-05-14T12:07:45;1.60;;;1.50;;
76807;SDS011;65758;45.458;11.062;2023-05-14T12:10:13;1.70;;;1.60;;
76807;SDS011;65758;45.458;11.062;2023-05-14T12:12:43;2.10;;;1.70;;
76807;SDS011;65758;45.458;11.062;2023-05-14T12:15:12;3.40;;;1.70;;
76807;SDS011;65758;45.458;11.062;2023-05-14T12:17:40;2.30;;;2.00;;
76807;SDS011;65758;45.458;11.062;2023-05-14T12:20:07;4.20;;;2.20;;
76807;SDS011;65758;45.458;11.062;2023-05-14T12:22:40;3.20;;;1.60;;
76807;SDS011;65758;45.458;11.062;2023-05-14T12:25:11;5.70;;;1.80;;
76807;SDS011;65758;45.458;11.062;2023-05-14T12:27:43;1.90;;;1.80;;
76807;SDS011;65758;45.458;11.062;2023-05-14T12:30:11;4.10;;;2.00;;
76807;SDS011;65758;45.458;11.062;2023-05-14T12:32:52;3.10;;;1.80;;
76807;SDS011;65758;45.458;11.062;2023-05-14T12:35:20;2.80;;;1.40;;
76807;SDS011;65758;45.458;11.062;2023-05-14T12:37:48;1.80;;;1.70;;
76807;SDS011;65758;45.458;11.062;2023-05-14T12:40:15;1.80;;;1.50;;
76807;SDS011;65758;45.458;11.062;2023-05-14T12:42:42;2.80;;;1.70;;
76807;SDS011;65758;45.458;11.062;2023-05-14T12:45:09;2.20;;;1.80;;
76807;SDS011;65758;45.458;11.062;2023-05-14T12:47:36;1.90;;;1.80;;
76807;SDS011;65758;45.458;11.062;2023-05-14T12:50:03;3.10;;;2.00;;
76807;SDS011;65758;45.458;11.062;2023-05-14T12:52:31;3.40;;;2.10;;
76807;SDS011;65758;45.458;11.062;2023-05-14T12:55:05;2.20;;;2.00;;
76807;SDS011;65758;45.458;11.062;2023-05-14T12:57:33;2.30;;;2.10;;
76807;SDS011;65758;45.458;11.062;2023-05-14T13:00:01;2.00;;;1.80;;
76807;SDS011;65758;45.458;11.062;2023-05-14T13:02:32;2.00;;;1.90;;
76807;SDS011;65758;45.458;11.062;2023-05-14T13:05:09;2.50;;;2.00;;
76807;SDS011;65758;45.458;11.062;2023-05-14T13:07:36;2.90;;;2.70;;
76807;SDS011;65758;45.458;11.062;2023-05-14T13:10:04;4.50;;;2.70;;
76807;SDS011;65758;45.458;11.062;2023-05-14T13:12:31;2.60;;;2.30;;
76807;SDS011;65758;45.458;11.062;2023-05-14T13:14:58;2.80;;;2.60;;
76807;SDS011;65758;45.458;11.062;2023-05-14T13:17:25;2.40;;;2.20;;
76807;SDS011;65758;45.458;11.062;2023-05-14T13:19:52;2.50;;;2.30;;
76807;SDS011;65758;45.458;11.062;2023-05-14T13:22:18;2.60;;;1.90;;
76807;SDS011;65758;45.458;11.062;2023-05-14T13:24:45;2.00;;;1.80;;
76807;SDS011;65758;45.458;11.062;2023-05-14T13:27:12;1.70;;;1.50;;
76807;SDS011;65758;45.458;11.062;2023-05-14T13:29:39;1.60;;;1.50;;
76807;SDS011;65758;45.458;11.062;2023-05-14T13:32:06;1.50;;;1.40;;
76807;SDS011;65758;45.458;11.062;2023-05-14T13:34:33;2.40;;;1.60;;
76807;SDS011;65758;45.458;11.062;2023-05-14T13:37:00;1.70;;;1.60;;
76807;SDS011;65758;45.458;11.062;2023-05-14T13:39:26;1.80;;;1.70;;
76807;SDS011;65758;45.458;11.062;2023-05-14T13:41:53;1.90;;;1.70;;
76807;SDS011;65758;45.458;11.062;2023-05-14T13:44:22;2.60;;;2.40;;
76807;SDS011;65758;45.458;11.062;2023-05-14T13:46:49;1.70;;;1.60;;
76807;SDS011;65758;45.458;11.062;2023-05-14T13:49:17;1.60;;;1.50;;
76807;SDS011;65758;45.458;11.062;2023-05-14T13:51:44;1.80;;;1.70;;
76807;SDS011;65758;45.458;11.062;2023-05-14T13:54:11;3.10;;;2.30;;
76807;SDS011;65758;45.458;11.062;2023-05-14T13:56:38;3.60;;;2.20;;
76807;SDS011;65758;45.458;11.062;2023-05-14T13:59:04;1.80;;;1.70;;
76807;SDS011;65758;45.458;11.062;2023-05-14T14:01:31;2.40;;;2.20;;
76807;SDS011;65758;45.458;11.062;2023-05-14T14:03:58;1.80;;;1.70;;
76807;SDS011;65758;45.458;11.062;2023-05-14T14:06:25;1.40;;;1.20;;
76807;SDS011;65758;45.458;11.062;2023-05-14T14:08:55;1.30;;;1.20;;
76807;SDS011;65758;45.458;11.062;2023-05-14T14:11:22;1.60;;;1.30;;
76807;SDS011;65758;45.458;11.062;2023-05-14T14:13:49;1.30;;;1.20;;
76807;SDS011;65758;45.458;11.062;2023-05-14T14:16:15;2.20;;;1.20;;
76807;SDS011;65758;45.458;11.062;2023-05-14T14:18:43;1.20;;;1.10;;
76807;SDS011;65758;45.458;11.062;2023-05-14T14:21:10;1.30;;;1.20;;
76807;SDS011;65758;45.458;11.062;2023-05-14T14:23:37;1.20;;;1.10;;
76807;SDS011;65758;45.458;11.062;2023-05-14T14:26:04;1.60;;;1.00;;
76807;SDS011;65758;45.458;11.062;2023-05-14T14:28:31;2.00;;;1.20;;
76807;SDS011;65758;45.458;11.062;2023-05-14T14:30:58;1.70;;;1.40;;
76807;SDS011;65758;45.458;11.062;2023-05-14T14:33:24;1.30;;;1.20;;
76807;SDS011;65758;45.458;11.062;2023-05-14T14:35:52;2.50;;;1.00;;
76807;SDS011;65758;45.458;11.062;2023-05-14T14:38:19;1.50;;;1.30;;
76807;SDS011;65758;45.458;11.062;2023-05-14T14:40:46;2.10;;;1.10;;
76807;SDS011;65758;45.458;11.062;2023-05-14T14:43:13;2.50;;;1.30;;
76807;SDS011;65758;45.458;11.062;2023-05-14T14:45:39;1.50;;;1.40;;
76807;SDS011;65758;45.458;11.062;2023-05-14T14:50:53;3.00;;;1.40;;
76807;SDS011;65758;45.458;11.062;2023-05-14T14:53:21;3.00;;;1.30;;
76807;SDS011;65758;45.458;11.062;2023-05-14T14:55:48;1.30;;;1.20;;